Time;durP1;ratioP1;P1;durP2;ratioP2;P2;SDS_P1;SDS_P2;PMS_P1;PMS_P2;Temp;Humidity;BMP_temperature;BMP_pressure;BME280_temperature;BME280_humidity;BME280_pressure;Samples;Min_cycle;Max_cycle;Signal;HPM_P1;HPM_P2
2022/11/26 00:01:16;;;;;;;;;18.75;17.00;;;;;20.96;58.73;101980.41;5019721;28;46047;-63
2022/11/26 00:03:41;;;;;;;;;18.50;16.00;;;;;20.96;58.47;101986.59;5018546;28;45288;-63
2022/11/26 00:06:33;;;;;;;;;16.50;13.25;;;;;20.96;58.88;101993.69;5002615;28;45240;-62
2022/11/26 00:08:58;;;;;;;;;20.00;16.50;;;;;20.96;58.89;101991.03;5004693;28;45785;-63
2022/11/26 00:11:24;;;;;;;;;17.75;13.75;;;;;20.95;58.47;102000.75;5018420;28;46018;-62
2022/11/26 00:13:49;;;;;;;;;18.50;14.75;;;;;20.95;58.51;101999.88;4985498;28;48170;-62
2022/11/26 00:16:14;;;;;;;;;17.75;15.25;;;;;20.94;58.61;101998.09;5001990;28;47981;-61
2022/11/26 00:18:41;;;;;;;;;19.50;16.50;;;;;20.94;58.21;102000.75;5001804;28;45583;-62
2022/11/26 00:21:13;;;;;;;;;21.00;14.75;;;;;20.94;58.48;102001.66;5018827;28;45441;-62
2022/11/26 00:23:39;;;;;;;;;15.75;14.50;;;;;20.95;58.53;102005.19;4986622;28;45328;-62
2022/11/26 00:26:04;;;;;;;;;14.25;13.25;;;;;20.93;58.71;102002.53;5019594;28;45964;-63
2022/11/26 00:28:35;;;;;;;;;17.75;17.00;;;;;20.93;58.50;102006.97;5018081;28;45544;-63
2022/11/26 00:31:02;;;;;;;;;17.00;15.25;;;;;20.92;58.72;102010.53;5019466;28;45248;-63
2022/11/26 00:33:28;;;;;;;;;13.25;13.00;;;;;20.93;58.58;102014.94;5019316;28;45269;-62
2022/11/26 00:35:56;;;;;;;;;16.25;14.50;;;;;20.93;58.88;102006.97;5001900;28;45310;-62
2022/11/26 00:38:21;;;;;;;;;13.00;8.50;;;;;20.92;58.58;102011.41;5001445;28;45340;-62
2022/11/26 00:40:47;;;;;;;;;19.00;16.75;;;;;20.92;58.77;102010.53;5001183;28;55162;-62
2022/11/26 00:43:13;;;;;;;;;18.00;15.00;;;;;20.92;58.79;102006.09;5017460;28;57682;-62
2022/11/26 00:45:38;;;;;;;;;16.75;14.00;;;;;20.92;58.68;101999.91;5019523;28;45222;-63
2022/11/26 00:48:04;;;;;;;;;18.00;13.50;;;;;20.91;59.10;102007.00;5000370;28;72107;-63
2022/11/26 00:50:32;;;;;;;;;17.50;14.75;;;;;20.92;58.73;102007.88;5004626;28;47430;-63
2022/11/26 00:52:58;;;;;;;;;18.50;15.00;;;;;20.93;58.76;102017.59;5004684;28;45338;-63
2022/11/26 00:55:43;;;;;;;;;15.25;14.75;;;;;20.91;58.80;102009.66;5021463;28;45375;-63
2022/11/26 00:58:21;;;;;;;;;19.00;15.75;;;;;20.91;58.50;102014.09;5004901;28;45434;-63
2022/11/26 01:00:47;;;;;;;;;19.50;14.50;;;;;20.90;59.11;102018.50;5004784;28;45431;-64
2022/11/26 01:03:12;;;;;;;;;14.25;13.50;;;;;20.89;58.73;102014.97;5021235;28;45226;-64
2022/11/26 01:05:37;;;;;;;;;16.75;14.00;;;;;20.91;58.88;102014.09;5004774;28;45275;-62
2022/11/26 01:08:15;;;;;;;;;17.75;15.25;;;;;20.91;58.35;102016.75;5021537;28;67590;-63
2022/11/26 01:10:40;;;;;;;;;15.50;14.00;;;;;20.91;58.56;102019.38;5020823;28;45337;-63
2022/11/26 01:13:08;;;;;;;;;17.00;13.00;;;;;20.91;58.85;102025.56;5003796;28;68477;-62
2022/11/26 01:15:34;;;;;;;;;19.50;17.25;;;;;20.92;58.76;102026.44;5004741;28;45406;-63
2022/11/26 01:17:59;;;;;;;;;13.25;13.25;;;;;20.92;58.85;102026.44;5021596;28;65371;-64
2022/11/26 01:20:29;;;;;;;;;23.50;17.50;;;;;20.89;58.82;102020.28;5020508;28;59291;-63
2022/11/26 01:22:56;;;;;;;;;18.25;15.75;;;;;20.91;59.13;102025.56;5004717;28;45268;-63
2022/11/26 01:25:22;;;;;;;;;18.75;15.75;;;;;20.91;58.74;102030.00;5020753;28;45398;-63
2022/11/26 01:27:47;;;;;;;;;13.25;12.75;;;;;20.90;59.08;102026.47;5004480;28;45520;-62
2022/11/26 01:30:25;;;;;;;;;15.50;13.00;;;;;20.90;58.83;102026.47;5022015;28;45267;-63
2022/11/26 01:32:50;;;;;;;;;18.75;13.00;;;;;20.89;58.67;102019.41;5005507;28;45413;-63
2022/11/26 01:35:16;;;;;;;;;13.75;12.00;;;;;20.89;59.02;102028.25;4987201;28;60477;-63
2022/11/26 01:37:42;;;;;;;;;18.25;16.00;;;;;20.89;58.91;102027.38;5020885;28;45560;-62
2022/11/26 01:40:29;;;;;;;;;17.00;15.00;;;;;20.89;59.01;102022.94;5020359;28;46195;-63
2022/11/26 01:42:58;;;;;;;;;19.75;15.75;;;;;20.89;59.14;102024.72;5020699;28;45298;-63
2022/11/26 01:45:24;;;;;;;;;17.25;14.50;;;;;20.87;59.15;102016.78;5021049;28;45374;-63
2022/11/26 01:47:49;;;;;;;;;17.75;14.50;;;;;20.87;59.20;102018.56;5021409;28;66149;-63
2022/11/26 01:50:27;;;;;;;;;18.00;13.50;;;;;20.87;59.02;102016.78;5021705;28;46173;-63
2022/11/26 01:52:53;;;;;;;;;17.75;15.75;;;;;20.88;58.67;102015.88;5021731;28;45211;-62
2022/11/26 01:55:19;;;;;;;;;14.50;13.50;;;;;20.88;58.77;102017.66;5000771;28;45328;-62
2022/11/26 01:57:44;;;;;;;;;20.00;17.25;;;;;20.88;58.51;102021.19;5017982;28;58142;-62
2022/11/26 02:00:10;;;;;;;;;17.50;16.25;;;;;20.88;58.52;102028.28;5020170;28;45249;-63
2022/11/26 02:02:36;;;;;;;;;18.50;17.50;;;;;20.87;58.87;102035.38;5003974;28;45196;-63
2022/11/26 02:05:23;;;;;;;;;18.00;16.00;;;;;20.87;58.90;102031.84;5021722;28;45145;-63
2022/11/26 02:07:48;;;;;;;;;21.00;15.75;;;;;20.86;58.58;102023.00;5020340;28;45715;-63
2022/11/26 02:10:13;;;;;;;;;20.75;14.50;;;;;20.86;58.63;102023.00;5003449;28;47501;-63
2022/11/26 02:12:39;;;;;;;;;16.75;15.00;;;;;20.86;58.77;102022.13;5003745;28;45320;-62
2022/11/26 02:15:05;;;;;;;;;15.00;14.00;;;;;20.86;59.01;102023.00;5020374;28;45338;-62
2022/11/26 02:17:47;;;;;;;;;20.75;15.50;;;;;20.85;58.72;102020.38;5020077;28;45343;-63
2022/11/26 02:20:31;;;;;;;;;17.00;15.00;;;;;20.85;58.77;102028.34;5021075;28;45439;-62
2022/11/26 02:23:18;;;;;;;;;13.50;8.75;;;;;20.83;58.72;102017.72;5021376;28;45497;-63
2022/11/26 02:26:16;;;;;;;;;17.75;14.75;;;;;20.83;58.54;102020.38;5021367;28;45485;-63
2022/11/26 02:28:59;;;;;;;;;15.25;14.25;;;;;20.82;58.65;102015.09;5019957;28;45580;-63
2022/11/26 02:31:24;;;;;;;;;18.00;13.75;;;;;20.82;58.59;102010.66;5020904;28;45409;-63
2022/11/26 02:33:57;;;;;;;;;16.00;15.25;;;;;20.82;58.29;101999.16;5019916;28;45541;-63
2022/11/26 02:36:29;;;;;;;;;15.00;13.00;;;;;20.81;58.49;101997.41;5003881;28;46399;-63
2022/11/26 02:38:54;;;;;;;;;17.75;16.00;;;;;20.82;58.33;102000.03;4987131;28;45272;-63
2022/11/26 02:41:19;;;;;;;;;17.50;16.50;;;;;20.82;58.44;101999.16;5019440;28;47009;-63
2022/11/26 02:43:45;;;;;;;;;14.50;14.25;;;;;20.80;58.39;102009.81;5018922;28;68739;-62
2022/11/26 02:46:11;;;;;;;;;16.25;14.25;;;;;20.82;58.64;102012.44;5019480;28;53161;-63
2022/11/26 02:48:39;;;;;;;;;14.75;14.00;;;;;20.81;58.51;102019.50;5019550;28;45884;-63
2022/11/26 02:51:09;;;;;;;;;16.25;12.75;;;;;20.81;58.41;102027.47;5019694;28;45465;-63
2022/11/26 02:53:34;;;;;;;;;19.75;15.50;;;;;20.81;58.73;102018.63;5019882;28;45290;-63
2022/11/26 02:56:08;;;;;;;;;18.50;13.00;;;;;20.80;58.57;102020.41;5019414;28;45403;-63
2022/11/26 02:58:33;;;;;;;;;18.00;15.25;;;;;20.78;58.69;102024.88;5002913;28;51431;-63
2022/11/26 03:00:59;;;;;;;;;17.50;15.25;;;;;20.78;58.63;102019.56;5018700;28;57606;-63
2022/11/26 03:03:26;;;;;;;;;16.50;15.00;;;;;20.79;58.76;102020.44;5003063;28;45260;-63
2022/11/26 03:05:57;;;;;;;;;16.25;13.50;;;;;20.80;58.64;102023.06;5019440;28;45401;-63
2022/11/26 03:08:23;;;;;;;;;16.25;14.50;;;;;20.80;58.91;102022.19;5003512;28;45480;-62
2022/11/26 03:10:48;;;;;;;;;14.75;14.75;;;;;20.80;58.83;102016.88;5019390;28;48747;-63
2022/11/26 03:13:14;;;;;;;;;19.25;15.50;;;;;20.80;58.91;102020.41;5019145;28;45250;-63
2022/11/26 03:15:39;;;;;;;;;14.75;14.00;;;;;20.80;58.86;102023.06;5018800;28;59575;-63
2022/11/26 03:18:05;;;;;;;;;15.25;13.50;;;;;20.80;59.16;102009.81;5020478;28;45271;-63
2022/11/26 03:20:30;;;;;;;;;15.00;13.75;;;;;20.79;58.80;102021.31;5018071;28;73912;-62
2022/11/26 03:22:55;;;;;;;;;17.00;16.00;;;;;20.80;58.72;102027.50;5018791;28;59283;-62
2022/11/26 03:25:21;;;;;;;;;14.50;13.75;;;;;20.80;58.63;102033.69;5019668;28;55150;-62
2022/11/26 03:27:46;;;;;;;;;14.75;13.50;;;;;20.80;58.71;102023.06;5002111;28;64940;-63
2022/11/26 03:30:12;;;;;;;;;15.25;13.75;;;;;20.80;58.82;102020.41;5002470;28;45902;-63
2022/11/26 03:32:37;;;;;;;;;18.25;14.00;;;;;20.79;58.76;102017.78;5020457;28;45237;-62
2022/11/26 03:35:03;;;;;;;;;19.50;14.75;;;;;20.78;58.88;102024.88;5019440;28;58943;-62
2022/11/26 03:37:28;;;;;;;;;18.75;14.00;;;;;20.79;58.85;102025.75;5018966;28;45418;-62
2022/11/26 03:39:54;;;;;;;;;18.00;13.00;;;;;20.78;58.82;102021.34;5017774;28;66367;-62
2022/11/26 03:42:19;;;;;;;;;13.50;13.25;;;;;20.77;58.69;102016.94;5018230;28;62066;-62
2022/11/26 03:44:44;;;;;;;;;12.50;11.25;;;;;20.77;58.63;102015.16;5019620;28;55525;-62
2022/11/26 03:47:10;;;;;;;;;16.25;13.75;;;;;20.78;58.89;102018.69;5019630;28;62231;-62
2022/11/26 03:49:35;;;;;;;;;16.25;14.00;;;;;20.77;58.86;102022.25;5002091;28;45362;-63
2022/11/26 03:52:01;;;;;;;;;16.50;15.50;;;;;20.78;58.90;102029.31;5018571;28;57475;-63
2022/11/26 03:54:26;;;;;;;;;17.50;13.50;;;;;20.75;58.88;102019.59;5019310;28;54503;-62
2022/11/26 03:56:52;;;;;;;;;13.75;12.75;;;;;20.77;58.84;102028.41;5020111;28;45229;-63
2022/11/26 03:59:17;;;;;;;;;12.00;12.00;;;;;20.76;58.85;102021.38;5001319;28;65952;-63
2022/11/26 04:01:42;;;;;;;;;14.75;11.50;;;;;20.76;58.78;102026.66;5018574;28;45240;-62
2022/11/26 04:04:08;;;;;;;;;17.75;14.50;;;;;20.76;58.82;102028.41;5018547;28;45252;-63
2022/11/26 04:06:33;;;;;;;;;18.00;15.00;;;;;20.76;58.87;102031.06;5017917;28;66535;-63
2022/11/26 04:08:58;;;;;;;;;18.00;14.25;;;;;20.77;58.64;102028.41;5017290;28;71294;-63
2022/11/26 04:11:24;;;;;;;;;16.50;15.25;;;;;20.76;58.47;102026.66;5019007;28;70380;-63
2022/11/26 04:13:49;;;;;;;;;13.75;12.25;;;;;20.76;58.75;102029.31;5019015;28;61658;-63
2022/11/26 04:16:15;;;;;;;;;19.75;11.25;;;;;20.76;59.01;102034.63;5001401;28;66915;-63
2022/11/26 04:18:40;;;;;;;;;13.75;12.25;;;;;20.77;58.60;102046.13;5019410;28;45995;-63
2022/11/26 04:21:06;;;;;;;;;18.00;11.50;;;;;20.76;58.62;102039.94;5017925;28;64726;-63
2022/11/26 04:23:32;;;;;;;;;21.00;13.25;;;;;20.77;58.67;102032.84;5021470;28;45448;-63
2022/11/26 04:25:57;;;;;;;;;18.25;16.75;;;;;20.76;58.85;102031.06;5023068;28;45283;-63
2022/11/26 04:28:22;;;;;;;;;16.50;13.00;;;;;20.75;59.10;102027.53;5021941;28;73038;-63
2022/11/26 04:30:48;;;;;;;;;15.75;13.25;;;;;20.75;58.84;102027.53;5021225;28;63081;-63
2022/11/26 04:33:13;;;;;;;;;14.75;12.25;;;;;20.76;58.76;102024.03;5022916;28;45765;-63
2022/11/26 04:35:39;;;;;;;;;15.50;13.75;;;;;20.76;58.68;102023.09;5022994;28;45393;-63
2022/11/26 04:38:04;;;;;;;;;19.25;14.00;;;;;20.75;58.54;102019.59;5021133;28;55245;-63
2022/11/26 04:40:29;;;;;;;;;17.75;13.50;;;;;20.75;58.58;102024.88;5021902;28;71253;-63
2022/11/26 04:42:55;;;;;;;;;12.75;12.75;;;;;20.76;58.78;102031.06;5022598;28;58653;-63
2022/11/26 04:45:20;;;;;;;;;18.00;15.00;;;;;20.75;58.58;102035.50;5021130;28;56105;-63
2022/11/26 04:47:45;;;;;;;;;18.50;13.50;;;;;20.75;58.51;102040.81;5021964;28;68301;-63
2022/11/26 04:50:11;;;;;;;;;20.75;15.00;;;;;20.74;58.24;102033.75;5020994;28;66929;-63
2022/11/26 04:52:36;;;;;;;;;13.25;13.25;;;;;20.74;58.44;102031.09;5023049;28;45419;-63
2022/11/26 04:55:02;;;;;;;;;13.50;13.25;;;;;20.74;58.44;102028.44;5022603;28;45343;-63
2022/11/26 04:57:27;;;;;;;;;17.50;13.25;;;;;20.75;58.68;102034.63;4988102;28;45962;-63
2022/11/26 04:59:52;;;;;;;;;15.00;14.75;;;;;20.75;58.73;102034.63;5021786;28;71694;-63
2022/11/26 05:02:18;;;;;;;;;19.75;16.00;;;;;20.75;58.35;102045.22;5020788;28;53261;-63
2022/11/26 05:04:43;;;;;;;;;13.50;13.25;;;;;20.74;58.42;102039.06;5021090;28;45233;-63
2022/11/26 05:07:09;;;;;;;;;18.50;15.75;;;;;20.74;58.70;102052.31;5021635;28;64469;-63
2022/11/26 05:09:34;;;;;;;;;14.75;13.00;;;;;20.74;58.89;102051.44;5021210;28;45909;-63
2022/11/26 05:12:00;;;;;;;;;17.50;15.00;;;;;20.73;58.71;102052.34;5021056;28;45316;-63
2022/11/26 05:14:25;;;;;;;;;15.50;12.00;;;;;20.73;58.27;102055.88;5020729;28;59554;-63
2022/11/26 05:16:50;;;;;;;;;15.75;13.50;;;;;20.73;58.25;102052.34;5021586;28;61428;-63
2022/11/26 05:19:16;;;;;;;;;14.75;14.00;;;;;20.72;58.30;102054.13;5022088;28;45221;-63
2022/11/26 05:21:41;;;;;;;;;19.25;15.75;;;;;20.72;58.12;102056.78;5021565;28;64733;-63
2022/11/26 05:24:07;;;;;;;;;14.50;13.50;;;;;20.73;57.80;102065.59;5022410;28;45423;-63
2022/11/26 05:26:32;;;;;;;;;16.50;15.50;;;;;20.72;58.37;102067.38;5021959;28;47064;-63
2022/11/26 05:28:57;;;;;;;;;14.00;12.00;;;;;20.72;58.04;102063.84;5020238;28;68609;-63
2022/11/26 05:31:23;;;;;;;;;13.00;12.50;;;;;20.71;57.86;102065.63;5022344;28;45235;-63
2022/11/26 05:33:48;;;;;;;;;17.00;14.25;;;;;20.70;58.17;102063.88;5021797;28;51591;-63
2022/11/26 05:36:13;;;;;;;;;14.75;12.50;;;;;20.73;58.02;102076.22;5020704;28;62025;-63
2022/11/26 05:38:39;;;;;;;;;20.00;15.00;;;;;20.72;58.26;102067.38;5021141;28;68830;-63
2022/11/26 05:41:04;;;;;;;;;14.00;13.25;;;;;20.72;58.26;102056.78;5021401;28;50600;-63
2022/11/26 05:43:30;;;;;;;;;9.00;9.00;;;;;20.72;58.11;102056.78;5021186;28;68586;-63
2022/11/26 05:45:55;;;;;;;;;14.75;14.00;;;;;20.72;58.35;102064.72;5020613;28;58487;-64
2022/11/26 05:48:20;;;;;;;;;15.00;14.50;;;;;20.72;58.07;102070.03;5021255;28;62883;-63
2022/11/26 05:50:46;;;;;;;;;16.25;16.00;;;;;20.72;58.02;102080.66;5021927;28;45920;-63
2022/11/26 05:53:11;;;;;;;;;16.50;14.50;;;;;20.72;58.06;102085.97;5021827;28;45435;-63
2022/11/26 05:55:36;;;;;;;;;17.75;15.00;;;;;20.71;57.73;102078.91;5020701;28;68009;-63
2022/11/26 05:58:02;;;;;;;;;13.25;12.50;;;;;20.72;57.55;102085.97;5021760;28;45479;-63
2022/11/26 06:00:27;;;;;;;;;14.75;12.00;;;;;20.70;57.94;102082.44;5021218;28;49894;-63
2022/11/26 06:02:54;;;;;;;;;14.00;13.75;;;;;20.71;57.89;102086.84;5021758;28;45237;-62
2022/11/26 06:05:20;;;;;;;;;15.75;15.00;;;;;20.72;58.27;102085.09;5021273;28;50767;-63
2022/11/26 06:07:46;;;;;;;;;17.50;16.75;;;;;20.72;58.03;102087.72;5021400;28;45275;-62
2022/11/26 06:10:12;;;;;;;;;13.50;13.00;;;;;20.72;58.14;102095.69;5020659;28;62813;-63
2022/11/26 06:12:37;;;;;;;;;16.00;13.50;;;;;20.72;57.97;102103.66;5020438;28;45315;-62
2022/11/26 06:15:03;;;;;;;;;13.00;12.50;;;;;20.72;58.20;102115.13;5020076;28;46459;-62
2022/11/26 06:17:29;;;;;;;;;20.25;14.25;;;;;20.72;58.10;102115.13;4987069;28;45372;-63
2022/11/26 06:20:00;;;;;;;;;14.50;12.25;;;;;20.72;57.80;102124.88;4987496;28;45398;-64
2022/11/26 06:22:29;;;;;;;;;16.25;14.75;;;;;20.71;58.19;102129.31;5020821;28;45724;-63
2022/11/26 06:24:55;;;;;;;;;15.00;11.00;;;;;20.72;58.08;102125.75;4985179;28;46848;-63
2022/11/26 06:27:20;;;;;;;;;14.75;12.50;;;;;20.72;58.13;102128.41;5019268;28;69241;-61
2022/11/26 06:29:46;;;;;;;;;14.25;12.00;;;;;20.72;57.93;102115.13;5021103;28;50223;-62
2022/11/26 06:32:11;;;;;;;;;17.25;15.00;;;;;20.72;57.88;102107.19;5003039;28;64089;-61
2022/11/26 06:34:36;;;;;;;;;14.50;12.75;;;;;20.72;58.05;102096.56;5019312;28;56365;-60
2022/11/26 06:37:02;;;;;;;;;14.75;12.75;;;;;20.74;58.38;102104.50;5020285;28;66739;-62
2022/11/26 06:39:27;;;;;;;;;16.75;14.25;;;;;20.72;57.89;102107.19;5020115;28;60212;-62
2022/11/26 06:41:52;;;;;;;;;13.50;12.50;;;;;20.72;57.91;102108.97;5019269;28;52432;-62
2022/11/26 06:44:18;;;;;;;;;13.75;13.00;;;;;20.72;57.98;102112.50;5019684;28;48023;-62
2022/11/26 06:46:43;;;;;;;;;14.00;14.00;;;;;20.73;57.88;102123.97;5019302;28;58772;-62
2022/11/26 06:49:09;;;;;;;;;12.50;11.75;;;;;20.72;57.66;102114.25;5019291;28;53100;-63
2022/11/26 06:51:34;;;;;;;;;18.75;14.50;;;;;20.72;57.57;102124.88;5020222;28;64772;-63
2022/11/26 06:53:59;;;;;;;;;18.00;15.00;;;;;20.72;57.59;102140.78;5018980;28;56674;-63
2022/11/26 06:56:25;;;;;;;;;16.50;12.75;;;;;20.71;57.44;102139.03;4986554;28;45517;-64
2022/11/26 06:58:53;;;;;;;;;13.75;12.25;;;;;20.70;57.59;102143.47;5020802;28;45414;-63
2022/11/26 07:01:20;;;;;;;;;14.00;13.00;;;;;20.70;57.88;102148.78;5020646;28;45614;-63
2022/11/26 07:03:45;;;;;;;;;14.25;13.75;;;;;20.70;57.66;102142.59;5019280;28;45378;-63
2022/11/26 07:06:22;;;;;;;;;14.75;12.75;;;;;20.70;57.52;102129.34;5020726;28;45314;-62
2022/11/26 07:08:47;;;;;;;;;13.50;12.50;;;;;20.69;57.60;102131.09;5020502;28;45267;-62
2022/11/26 07:11:13;;;;;;;;;14.50;13.50;;;;;20.70;57.98;102131.97;5020811;28;45220;-63
2022/11/26 07:13:38;;;;;;;;;16.75;16.25;;;;;20.71;57.96;102131.97;5020247;28;45320;-62
2022/11/26 07:16:04;;;;;;;;;16.00;13.50;;;;;20.70;57.70;102139.94;5020517;28;49513;-62
2022/11/26 07:18:29;;;;;;;;;14.00;12.00;;;;;20.69;58.22;102139.06;5018775;28;47786;-62
2022/11/26 07:20:54;;;;;;;;;13.25;12.75;;;;;20.70;58.14;102145.25;5020701;28;45406;-62
2022/11/26 07:23:20;;;;;;;;;12.25;12.25;;;;;20.70;57.94;102143.47;5018667;28;59660;-62
2022/11/26 07:25:45;;;;;;;;;15.00;13.00;;;;;20.71;57.86;102154.97;5018969;28;45359;-62
2022/11/26 07:28:12;;;;;;;;;11.00;10.75;;;;;20.71;57.92;102155.84;5019651;28;65420;-62
2022/11/26 07:30:37;;;;;;;;;12.75;11.75;;;;;20.71;57.92;102153.19;5018423;28;65539;-62
2022/11/26 07:33:03;;;;;;;;;14.25;13.25;;;;;20.71;58.05;102154.97;5019925;28;46924;-62
2022/11/26 07:35:29;;;;;;;;;13.50;12.75;;;;;20.70;57.96;102162.03;5018841;28;53262;-62
2022/11/26 07:37:55;;;;;;;;;16.25;13.25;;;;;20.71;57.92;102158.50;5019006;28;45347;-62
2022/11/26 07:40:20;;;;;;;;;14.00;12.00;;;;;20.71;58.15;102147.88;5020130;28;45519;-64
2022/11/26 07:42:45;;;;;;;;;17.25;13.50;;;;;20.72;58.05;102138.16;5002427;28;45421;-63
2022/11/26 07:45:11;;;;;;;;;17.00;14.00;;;;;20.72;57.99;102141.69;5019023;28;45423;-61
2022/11/26 07:47:36;;;;;;;;;14.00;12.00;;;;;20.72;58.04;102139.03;5019540;28;59651;-61
2022/11/26 07:50:02;;;;;;;;;14.75;13.50;;;;;20.73;58.30;102130.16;5019976;28;45586;-61
2022/11/26 07:52:27;;;;;;;;;12.25;12.25;;;;;20.73;57.73;102138.13;5018693;28;46143;-61
2022/11/26 07:54:53;;;;;;;;;18.25;13.50;;;;;20.75;58.26;102128.38;5018636;28;45303;-61
2022/11/26 07:57:21;;;;;;;;;15.25;14.00;;;;;20.75;58.27;102123.06;5018183;28;45349;-60
2022/11/26 07:59:46;;;;;;;;;18.00;13.00;;;;;20.76;57.94;102121.28;5005724;28;46592;-61
2022/11/26 08:02:13;;;;;;;;;12.50;11.75;;;;;20.76;58.01;102122.19;5021227;28;68822;-61
2022/11/26 08:04:39;;;;;;;;;15.00;13.25;;;;;20.76;58.31;102123.94;5022121;28;45305;-60
2022/11/26 08:07:04;;;;;;;;;14.25;14.00;;;;;20.78;57.90;102127.47;5023481;28;45781;-61
2022/11/26 08:09:29;;;;;;;;;11.75;10.00;;;;;20.78;58.29;102135.44;5022946;28;56675;-61
2022/11/26 08:11:55;;;;;;;;;18.00;12.50;;;;;20.78;58.12;102138.09;5004873;28;59992;-62
2022/11/26 08:14:20;;;;;;;;;18.50;14.25;;;;;20.78;58.39;102140.75;5021807;28;45340;-61
2022/11/26 08:16:46;;;;;;;;;13.75;12.00;;;;;20.79;58.36;102150.47;5018712;28;45801;-61
2022/11/26 08:19:12;;;;;;;;;13.25;11.75;;;;;20.79;58.19;102155.75;5019651;28;45706;-61
2022/11/26 08:21:38;;;;;;;;;17.50;12.25;;;;;20.79;58.13;102156.63;5018288;28;45505;-62
2022/11/26 08:24:04;;;;;;;;;11.75;10.25;;;;;20.81;58.18;102157.50;5022223;28;46061;-61
2022/11/26 08:26:30;;;;;;;;;18.75;14.75;;;;;20.81;57.74;102160.16;5023071;28;45251;-62
2022/11/26 08:28:55;;;;;;;;;16.25;9.75;;;;;20.83;58.28;102161.00;5020724;28;63802;-61
2022/11/26 08:31:23;;;;;;;;;14.50;11.50;;;;;20.84;58.37;102170.72;5021259;28;46190;-60
2022/11/26 08:33:48;;;;;;;;;17.75;14.00;;;;;20.85;58.48;102167.19;5021636;28;45417;-61
2022/11/26 08:36:14;;;;;;;;;22.75;14.00;;;;;20.86;58.39;102165.44;5020646;28;45357;-60
2022/11/26 08:38:39;;;;;;;;;14.25;12.00;;;;;20.88;58.37;102158.31;5003655;28;70075;-61
2022/11/26 08:41:09;;;;;;;;;13.25;11.25;;;;;20.88;58.57;102156.53;5003659;28;62719;-61
2022/11/26 08:43:35;;;;;;;;;14.00;9.75;;;;;20.88;58.68;102148.56;5005390;28;45375;-60
2022/11/26 08:46:00;;;;;;;;;13.00;11.25;;;;;20.91;58.66;102149.44;5003929;28;45278;-62
2022/11/26 08:48:27;;;;;;;;;14.00;12.75;;;;;20.93;58.68;102150.28;5021395;28;62272;-61
2022/11/26 08:50:56;;;;;;;;;10.75;10.00;;;;;20.93;58.58;102152.94;5003819;28;47646;-60
2022/11/26 08:53:22;;;;;;;;;15.00;11.75;;;;;20.94;58.75;102158.25;5018973;28;45581;-61
2022/11/26 08:55:47;;;;;;;;;11.50;9.75;;;;;20.95;58.64;102164.44;5022516;28;45287;-62
2022/11/26 08:58:13;;;;;;;;;14.25;11.00;;;;;20.94;58.40;102160.91;5020987;28;45303;-61
2022/11/26 09:00:39;;;;;;;;;13.00;11.25;;;;;20.96;58.43;102167.06;5021328;28;45334;-61
2022/11/26 09:03:05;;;;;;;;;11.75;10.50;;;;;20.96;58.58;102167.06;5021237;28;45466;-61
2022/11/26 09:05:31;;;;;;;;;14.50;13.25;;;;;20.97;58.34;102168.84;5021368;28;45315;-61
2022/11/26 09:07:56;;;;;;;;;13.50;12.50;;;;;20.98;58.60;102172.38;5020890;28;53175;-60
2022/11/26 09:10:21;;;;;;;;;16.75;13.25;;;;;20.97;58.51;102165.31;5019972;28;45332;-60
2022/11/26 09:12:47;;;;;;;;;13.75;11.50;;;;;20.98;58.31;102170.59;5022522;28;45244;-62
2022/11/26 09:15:12;;;;;;;;;13.00;8.75;;;;;20.98;58.31;102175.00;5004328;28;56155;-61
2022/11/26 09:17:38;;;;;;;;;10.50;9.50;;;;;20.98;58.42;102172.38;5021335;28;66114;-61
2022/11/26 09:20:03;;;;;;;;;14.75;13.00;;;;;20.98;58.45;102185.63;5021860;28;68448;-61
2022/11/26 09:22:29;;;;;;;;;14.00;9.50;;;;;20.98;58.12;102175.00;5022029;28;45335;-61
2022/11/26 09:24:54;;;;;;;;;13.50;12.50;;;;;20.97;58.27;102170.59;5020981;28;45794;-61
2022/11/26 09:27:20;;;;;;;;;13.00;11.00;;;;;20.96;58.25;102163.53;5019966;28;73407;-61
2022/11/26 09:29:45;;;;;;;;;12.25;10.50;;;;;20.96;58.04;102164.41;5022130;28;47208;-62
2022/11/26 09:32:10;;;;;;;;;12.50;12.00;;;;;20.98;58.47;102164.41;5021309;28;66294;-62
2022/11/26 09:34:36;;;;;;;;;12.50;11.00;;;;;20.97;57.92;102158.22;5022259;28;45563;-62
2022/11/26 09:37:02;;;;;;;;;13.00;12.25;;;;;20.97;58.14;102160.88;5020807;28;45504;-62
2022/11/26 09:39:27;;;;;;;;;11.75;10.25;;;;;20.98;57.91;102167.94;5021038;28;71423;-61
2022/11/26 09:42:01;;;;;;;;;15.00;13.00;;;;;20.98;57.76;102169.72;5019760;28;71332;-62
2022/11/26 09:44:39;;;;;;;;;13.00;11.25;;;;;20.99;57.80;102168.81;5004620;28;45378;-62
2022/11/26 09:47:10;;;;;;;;;15.75;12.25;;;;;20.99;58.00;102168.81;5020694;28;45428;-61
2022/11/26 09:50:00;;;;;;;;;12.00;10.50;;;;;20.98;57.87;102165.28;5020276;28;46864;-61
2022/11/26 09:52:33;;;;;;;;;15.25;14.75;;;;;20.99;57.58;102160.84;5020760;28;45246;-61
2022/11/26 09:55:20;;;;;;;;;11.75;11.25;;;;;20.99;57.68;102153.75;5004747;28;45299;-61
2022/11/26 09:58:01;;;;;;;;;19.75;11.25;;;;;21.00;57.73;102146.69;5003853;28;45426;-60
2022/11/26 10:00:44;;;;;;;;;14.75;11.00;;;;;21.00;58.13;102152.84;5019996;28;48370;-59
2022/11/26 10:03:15;;;;;;;;;15.50;12.50;;;;;20.98;57.98;102153.78;5020442;28;45333;-60
2022/11/26 10:05:40;;;;;;;;;12.50;11.25;;;;;21.00;57.94;102159.94;5020971;28;45481;-60
2022/11/26 10:08:12;;;;;;;;;15.50;13.75;;;;;21.00;58.13;102157.28;5020198;28;45517;-60
2022/11/26 10:10:51;;;;;;;;;15.00;12.50;;;;;21.00;58.06;102151.97;5021312;28;46290;-60
2022/11/26 10:13:29;;;;;;;;;11.25;10.25;;;;;20.99;57.67;102159.06;5004804;28;45321;-60
2022/11/26 10:15:59;;;;;;;;;12.00;11.00;;;;;20.99;57.82;102155.53;5020538;28;45375;-60
2022/11/26 10:18:48;;;;;;;;;14.00;12.25;;;;;21.00;57.90;102159.94;5003720;28;45478;-60
2022/11/26 10:21:39;;;;;;;;;17.75;12.75;;;;;21.01;58.15;102151.97;5019844;28;46515;-60
2022/11/26 10:24:29;;;;;;;;;18.50;14.25;;;;;21.02;58.50;102156.38;5020095;28;45408;-60
2022/11/26 10:26:54;;;;;;;;;17.75;15.25;;;;;21.02;58.60;102158.16;5021543;28;45339;-60
2022/11/26 10:29:28;;;;;;;;;16.25;13.75;;;;;21.01;58.17;102153.75;5003440;28;45302;-60
2022/11/26 10:31:57;;;;;;;;;13.50;12.75;;;;;21.00;58.57;102142.25;5021316;28;45411;-62
2022/11/26 10:34:36;;;;;;;;;12.25;11.00;;;;;21.01;58.65;102135.16;5003421;28;45302;-59
2022/11/26 10:37:02;;;;;;;;;17.00;12.25;;;;;21.02;58.70;102128.94;5020202;28;45180;-61
2022/11/26 10:39:27;;;;;;;;;16.00;15.00;;;;;21.01;58.48;102125.41;5018742;28;66980;-58
2022/11/26 10:41:53;;;;;;;;;24.50;20.50;;;;;20.99;55.96;102113.06;5020155;28;69609;-61
2022/11/26 10:44:36;;;;;;;;;18.75;18.00;;;;;20.85;54.78;102122.09;5003000;28;45569;-60
2022/11/26 10:47:18;;;;;;;;;20.25;16.00;;;;;20.71;55.09;102129.31;5003493;28;45201;-61
2022/11/26 10:49:43;;;;;;;;;19.50;18.00;;;;;20.60;54.95;102129.44;4999887;28;45712;-60
2022/11/26 10:52:09;;;;;;;;;22.50;18.25;;;;;20.53;56.08;102126.84;5017450;28;45943;-60
2022/11/26 10:54:36;;;;;;;;;15.25;13.50;;;;;20.52;57.00;102127.75;4983166;28;45368;-60
2022/11/26 10:57:08;;;;;;;;;19.75;18.50;;;;;20.55;57.44;102133.00;5019439;28;45263;-60
2022/11/26 10:59:39;;;;;;;;;15.25;15.25;;;;;20.58;57.39;102125.00;5019550;28;46000;-60
2022/11/26 11:02:30;;;;;;;;;13.50;13.50;;;;;20.63;57.16;102139.13;5003177;28;46493;-61
2022/11/26 11:04:56;;;;;;;;;17.75;13.75;;;;;20.66;57.36;102140.84;5019209;28;45267;-61
2022/11/26 11:07:37;;;;;;;;;15.75;13.50;;;;;20.69;57.33;102143.50;5003144;28;45270;-60
2022/11/26 11:10:03;;;;;;;;;17.25;14.25;;;;;20.72;56.93;102140.78;5020565;28;45314;-61
2022/11/26 11:12:29;;;;;;;;;15.50;12.50;;;;;20.73;57.01;102143.44;5002833;28;46287;-59